createdAt,value
2019-04-25T00:00:55.122Z,10.90
2019-04-25T00:03:42.537Z,10.76
2019-04-25T00:06:14.789Z,10.65
2019-04-25T00:08:46.286Z,10.57
2019-04-25T00:11:17.793Z,10.57
2019-04-25T00:13:49.367Z,10.50
2019-04-25T00:16:22.592Z,10.45
2019-04-25T00:18:54.058Z,10.42
2019-04-25T00:21:26.891Z,10.35
2019-04-25T00:23:58.750Z,10.26
2019-04-25T00:26:31.842Z,10.14
2019-04-25T00:29:04.030Z,10.07
2019-04-25T00:31:35.428Z,10.03
2019-04-25T00:34:07.186Z,10.04
2019-04-25T00:36:39.120Z,9.96
2019-04-25T00:39:11.844Z,9.87
2019-04-25T00:41:45.160Z,9.86
2019-04-25T00:44:16.204Z,9.82
2019-04-25T00:46:49.232Z,9.78
2019-04-25T00:49:22.035Z,9.74
2019-04-25T00:51:53.830Z,9.69
2019-04-25T00:54:25.033Z,9.61
2019-04-25T00:56:56.425Z,9.57
2019-04-25T00:59:32.051Z,9.52
2019-04-25T01:02:21.487Z,9.50
2019-04-25T01:04:54.158Z,9.50
2019-04-25T01:07:24.742Z,9.46
2019-04-25T01:09:56.306Z,9.32
2019-04-25T01:12:27.473Z,9.30
2019-04-25T01:14:58.901Z,9.23
2019-04-25T01:17:31.507Z,9.18
2019-04-25T01:20:07.748Z,9.14
2019-04-25T01:22:38.994Z,9.16
2019-04-25T01:25:11.037Z,9.15
2019-04-25T01:27:43.322Z,9.12
2019-04-25T01:30:16.152Z,9.10
2019-04-25T01:32:48.278Z,8.98
2019-04-25T01:35:36.741Z,8.86
2019-04-25T01:38:15.423Z,8.80
2019-04-25T01:40:51.333Z,8.74
2019-04-25T01:43:24.299Z,8.66
2019-04-25T01:45:56.573Z,8.67
2019-04-25T01:48:27.807Z,8.65
2019-04-25T01:50:58.552Z,8.60
2019-04-25T01:53:30.109Z,8.61
2019-04-25T01:56:05.878Z,8.59
2019-04-25T01:58:34.775Z,8.63
2019-04-25T02:01:06.097Z,8.62
2019-04-25T02:03:37.552Z,8.61
2019-04-25T02:06:08.792Z,8.62
2019-04-25T02:08:41.371Z,8.63
2019-04-25T02:11:24.042Z,8.64
2019-04-25T02:13:57.531Z,8.66
2019-04-25T02:16:31.482Z,8.66
2019-04-25T02:19:04.018Z,8.65
2019-04-25T02:21:35.533Z,8.65
2019-04-25T02:24:06.863Z,8.64
2019-04-25T02:26:38.128Z,8.54
2019-04-25T02:29:08.543Z,8.50
2019-04-25T02:31:39.909Z,8.48
2019-04-25T02:34:17.446Z,8.39
2019-04-25T02:36:47.298Z,8.39
2019-04-25T02:39:19.267Z,8.43
2019-04-25T02:41:50.631Z,8.38
2019-04-25T02:44:21.860Z,8.28
2019-04-25T02:47:00.333Z,8.26
2019-04-25T02:49:38.668Z,8.24
2019-04-25T02:52:13.012Z,8.18
2019-04-25T02:54:44.909Z,8.09
2019-04-25T02:57:16.017Z,8.01
2019-04-25T02:59:47.156Z,8.00
2019-04-25T03:02:18.653Z,7.93
2019-04-25T03:04:49.770Z,7.92
2019-04-25T03:07:20.018Z,7.92
2019-04-25T03:09:51.655Z,7.89
2019-04-25T03:12:30.739Z,7.89
2019-04-25T03:14:56.180Z,7.87
2019-04-25T03:17:27.265Z,7.88
2019-04-25T03:20:18.596Z,7.88
2019-04-25T03:22:49.799Z,7.94
2019-04-25T03:28:49.638Z,8.11
2019-04-25T03:31:27.185Z,8.08
2019-04-25T03:33:58.183Z,8.04
2019-04-25T03:36:31.168Z,7.97
2019-04-25T03:39:08.744Z,8.00
2019-04-25T03:41:40.171Z,8.04
2019-04-25T03:44:16.937Z,8.04
2019-04-25T03:46:47.367Z,8.03
2019-04-25T03:49:21.950Z,7.94
2019-04-25T03:51:58.508Z,7.92
2019-04-25T03:54:33.423Z,7.81
2019-04-25T03:57:06.655Z,7.74
2019-04-25T03:59:38.602Z,7.70
2019-04-25T04:02:20.336Z,7.66
2019-04-25T04:04:53.770Z,7.62
2019-04-25T04:07:25.423Z,7.58
2019-04-25T04:09:56.514Z,7.55
2019-04-25T04:12:26.801Z,7.56
2019-04-25T04:14:58.382Z,7.57
2019-04-25T04:17:31.183Z,7.49
2019-04-25T04:20:05.629Z,7.40
2019-04-25T04:22:44.475Z,7.43
2019-04-25T04:25:17.353Z,7.50
2019-04-25T04:27:48.506Z,7.57
2019-04-25T04:30:20.053Z,7.59
2019-04-25T04:32:51.239Z,7.60
2019-04-25T04:35:23.479Z,7.58
2019-04-25T04:37:54.827Z,7.61
2019-04-25T04:40:26.342Z,7.68
2019-04-25T04:42:57.557Z,7.71
2019-04-25T04:45:28.899Z,7.69
2019-04-25T04:48:00.127Z,7.68
2019-04-25T04:50:30.570Z,7.60
2019-04-25T04:53:02.011Z,7.58
2019-04-25T04:55:34.334Z,7.60
2019-04-25T04:58:07.487Z,7.66
2019-04-25T05:00:38.757Z,7.73
2019-04-25T05:03:30.445Z,7.79
2019-04-25T05:06:09.153Z,7.87
2019-04-25T05:08:45.295Z,8.06
2019-04-25T05:11:18.121Z,8.19
2019-04-25T05:13:49.665Z,8.27
2019-04-25T05:16:21.682Z,8.30
2019-04-25T05:18:55.338Z,8.36
2019-04-25T05:21:26.585Z,8.42
2019-04-25T05:23:57.904Z,8.46
2019-04-25T05:26:28.941Z,8.52
2019-04-25T05:36:36.532Z,8.85
2019-04-25T05:39:15.623Z,9.23
2019-04-25T05:42:17.145Z,9.90
2019-04-25T05:45:00.336Z,10.66
2019-04-25T05:47:50.088Z,11.65
2019-04-25T05:54:39.921Z,12.91
2019-04-25T06:00:46.616Z,12.90
2019-04-25T06:10:43.881Z,13.00
2019-04-25T06:14:08.212Z,13.19
2019-04-25T06:17:57.131Z,13.43
2019-04-25T06:38:27.248Z,13.83
2019-04-25T06:41:00.354Z,14.17
2019-04-25T06:43:37.584Z,14.43
2019-04-25T06:46:30.649Z,14.70
2019-04-25T06:49:04.738Z,14.87
2019-04-25T06:53:08.420Z,15.11
2019-04-25T06:54:55.847Z,15.55
2019-04-25T06:57:44.097Z,15.64
2019-04-25T07:00:17.174Z,15.38
2019-04-25T07:02:48.287Z,15.38
2019-04-25T07:05:31.146Z,15.86
2019-04-25T07:08:03.333Z,16.41
2019-04-25T07:10:40.922Z,16.63
2019-04-25T07:13:16.537Z,16.61
2019-04-25T07:15:47.582Z,16.63
2019-04-25T07:18:20.312Z,16.68
2019-04-25T07:20:56.961Z,16.87
2019-04-25T07:23:38.262Z,16.98
2019-04-25T07:26:18.678Z,17.16
2019-04-25T07:29:09.868Z,17.18
2019-04-25T07:31:45.588Z,17.39
2019-04-25T07:34:26.512Z,17.64
2019-04-25T07:37:24.177Z,17.71
2019-04-25T07:39:56.895Z,18.16
2019-04-25T07:42:35.450Z,18.39
2019-04-25T07:45:27.006Z,18.57
2019-04-25T07:48:16.769Z,18.83
2019-04-25T07:50:50.842Z,19.04
2019-04-25T07:53:23.737Z,19.28
2019-04-25T07:56:04.238Z,19.18
2019-04-25T07:58:43.645Z,19.36
2019-04-25T08:01:05.500Z,20.08
2019-04-25T08:03:38.234Z,20.41
2019-04-25T08:06:22.037Z,20.25
2019-04-25T08:08:54.441Z,20.12
2019-04-25T08:11:34.139Z,20.29
2019-04-25T08:14:10.740Z,20.44
2019-04-25T08:17:07.675Z,20.23
2019-04-25T08:19:41.935Z,20.63
2019-04-25T08:22:34.521Z,20.85
2019-04-25T08:25:30.745Z,20.77
2019-04-25T08:28:08.150Z,20.93
2019-04-25T08:30:39.384Z,21.09
2019-04-25T08:33:13.885Z,21.11
2019-04-25T08:36:04.318Z,21.18
2019-04-25T08:38:23.747Z,21.43
2019-04-25T08:41:05.389Z,21.55
2019-04-25T08:43:39.154Z,21.58
2019-04-25T08:46:23.454Z,21.85
2019-04-25T08:49:06.282Z,21.74
2019-04-25T08:51:42.100Z,21.78
2019-04-25T08:54:16.302Z,22.03
2019-04-25T08:56:57.882Z,21.94
2019-04-25T08:59:52.842Z,22.26
2019-04-25T09:02:44.720Z,22.13
2019-04-25T09:05:19.733Z,22.20
2019-04-25T09:07:54.687Z,22.81
2019-04-25T09:10:28.548Z,23.49
2019-04-25T09:12:59.647Z,23.50
2019-04-25T09:15:30.739Z,23.59
2019-04-25T09:18:01.935Z,23.80
2019-04-25T09:20:38.058Z,24.00
2019-04-25T09:23:05.034Z,24.20
2019-04-25T09:25:36.811Z,24.75
2019-04-25T09:28:11.553Z,25.04
2019-04-25T09:30:44.916Z,25.47
2019-04-25T09:33:17.023Z,24.97
2019-04-25T09:35:48.147Z,24.73
2019-04-25T09:38:19.209Z,24.37
2019-04-25T09:40:55.947Z,24.68
2019-04-25T09:43:27.005Z,25.01
2019-04-25T09:46:03.268Z,25.08
2019-04-25T09:48:40.293Z,25.80
2019-04-25T09:51:13.575Z,25.56
2019-04-25T09:53:50.982Z,25.25
2019-04-25T09:56:24.654Z,25.49
2019-04-25T09:58:57.271Z,25.58
2019-04-25T10:01:29.124Z,26.09
2019-04-25T10:04:06.225Z,26.25
2019-04-25T10:06:38.898Z,26.33
2019-04-25T10:09:11.104Z,25.56
2019-04-25T10:11:43.963Z,25.60
2019-04-25T10:14:30.001Z,25.37
2019-04-25T10:17:04.491Z,25.91
2019-04-25T10:19:35.751Z,26.30
2019-04-25T10:22:06.916Z,25.75
2019-04-25T10:24:38.512Z,25.75
2019-04-25T10:27:09.568Z,26.02
2019-04-25T10:29:47.278Z,26.15
2019-04-25T10:32:15.077Z,26.67
2019-04-25T10:34:47.929Z,26.71
2019-04-25T10:37:19.103Z,26.72
2019-04-25T10:39:50.237Z,26.39
2019-04-25T10:42:21.418Z,27.23
2019-04-25T10:44:54.006Z,27.96
2019-04-25T10:47:25.249Z,28.35
2019-04-25T10:49:55.913Z,28.35
2019-04-25T10:52:27.477Z,28.44
2019-04-25T10:54:58.462Z,28.03
2019-04-25T10:57:30.087Z,28.11
2019-04-25T11:00:07.505Z,28.23
2019-04-25T11:02:34.434Z,28.07
2019-04-25T11:05:09.672Z,28.52
2019-04-25T11:07:41.958Z,28.25
2019-04-25T11:10:17.214Z,28.34
2019-04-25T11:12:50.929Z,27.96
2019-04-25T11:15:23.393Z,28.18
2019-04-25T11:17:55.071Z,28.47
2019-04-25T11:20:28.588Z,28.09
2019-04-25T11:22:58.822Z,27.87
2019-04-25T11:25:30.080Z,28.23
2019-04-25T11:28:04.829Z,28.40
2019-04-25T11:30:36.263Z,28.17
2019-04-25T11:33:10.323Z,28.19
2019-04-25T11:35:40.906Z,28.22
2019-04-25T11:38:13.846Z,28.27
2019-04-25T11:40:49.331Z,27.51
2019-04-25T11:43:20.008Z,28.46
2019-04-25T11:45:52.185Z,29.07
2019-04-25T11:48:24.332Z,28.13
2019-04-25T11:50:55.944Z,27.38
2019-04-25T11:53:27.302Z,27.63
2019-04-25T11:55:58.608Z,28.02
2019-04-25T11:58:30.351Z,27.78
2019-04-25T12:01:01.617Z,27.87
2019-04-25T12:03:33.641Z,27.95
2019-04-25T12:06:05.174Z,28.02
2019-04-25T12:08:38.144Z,28.17
2019-04-25T12:11:09.250Z,27.93
2019-04-25T12:13:45.983Z,28.40
2019-04-25T12:16:16.533Z,28.80
2019-04-25T12:18:50.152Z,28.73
2019-04-25T12:21:20.562Z,29.11
2019-04-25T12:23:52.020Z,28.61
2019-04-25T12:26:25.881Z,28.35
2019-04-25T12:28:56.614Z,28.90
2019-04-25T12:31:27.602Z,29.04
2019-04-25T12:34:00.798Z,28.84
2019-04-25T12:36:34.073Z,28.44
2019-04-25T12:39:07.177Z,28.28
2019-04-25T12:41:38.786Z,28.32
2019-04-25T12:44:14.437Z,28.01
2019-04-25T12:46:50.536Z,27.93
2019-04-25T12:49:21.668Z,26.88
2019-04-25T12:51:54.910Z,27.04
2019-04-25T12:54:25.902Z,27.44
2019-04-25T12:56:57.395Z,27.82
2019-04-25T12:59:28.598Z,28.24
2019-04-25T13:02:00.928Z,28.71
2019-04-25T13:04:33.152Z,29.12
2019-04-25T13:07:05.432Z,29.39
2019-04-25T13:09:36.464Z,28.32
2019-04-25T13:12:09.095Z,28.11
2019-04-25T13:14:40.102Z,27.78
2019-04-25T13:17:10.314Z,27.44
2019-04-25T13:19:41.638Z,26.78
2019-04-25T13:22:12.791Z,26.93
2019-04-25T13:24:44.349Z,26.50
2019-04-25T13:27:16.966Z,26.34
2019-04-25T13:30:03.135Z,26.47
2019-04-25T13:32:52.616Z,26.40
2019-04-25T13:35:25.675Z,26.18
2019-04-25T13:37:57.524Z,26.18
2019-04-25T13:40:28.812Z,26.16
2019-04-25T13:43:00.094Z,26.20
2019-04-25T13:45:31.434Z,26.29
2019-04-25T13:48:04.702Z,26.27
2019-04-25T13:50:35.239Z,26.27
2019-04-25T13:53:06.254Z,26.22
2019-04-25T13:55:37.507Z,26.39
2019-04-25T13:58:09.177Z,26.39
2019-04-25T14:00:39.261Z,26.56
2019-04-25T14:03:10.638Z,26.59
2019-04-25T14:05:41.659Z,26.49
2019-04-25T14:08:13.141Z,26.76
2019-04-25T14:10:47.387Z,27.02
2019-04-25T14:13:18.789Z,27.21
2019-04-25T14:15:51.411Z,27.75
2019-04-25T14:18:31.502Z,27.68
2019-04-25T14:21:09.985Z,27.83
2019-04-25T14:23:41.095Z,27.83
2019-04-25T14:26:13.175Z,28.34
2019-04-25T14:28:44.435Z,28.34
2019-04-25T14:31:30.438Z,28.34
2019-04-25T14:33:51.712Z,28.19
2019-04-25T14:36:25.800Z,28.27
2019-04-25T14:38:54.591Z,27.87
2019-04-25T14:41:26.099Z,27.81
2019-04-25T14:43:56.993Z,27.99
2019-04-25T14:46:28.277Z,28.00
2019-04-25T14:48:59.177Z,28.33
2019-04-25T14:51:30.697Z,27.65
2019-04-25T14:54:03.295Z,27.83
2019-04-25T14:56:52.454Z,27.37
2019-04-25T14:59:24.439Z,27.02
2019-04-25T15:01:57.441Z,27.44
2019-04-25T15:04:28.480Z,27.85
2019-04-25T15:06:59.616Z,26.96
2019-04-25T15:09:30.915Z,26.68
2019-04-25T15:12:02.115Z,26.81
2019-04-25T15:14:33.518Z,26.81
2019-04-25T15:17:06.294Z,26.74
2019-04-25T15:19:37.220Z,27.66
2019-04-25T15:22:07.588Z,27.66
2019-04-25T15:24:47.615Z,27.71
2019-04-25T15:27:19.266Z,27.87
2019-04-25T15:29:50.748Z,28.59
2019-04-25T15:32:23.301Z,28.50
2019-04-25T15:34:56.261Z,28.51
2019-04-25T15:37:28.907Z,28.87
2019-04-25T15:40:04.226Z,29.42
2019-04-25T15:42:55.467Z,29.31
2019-04-25T15:45:28.614Z,29.42
2019-04-25T15:47:59.650Z,29.24
2019-04-25T15:50:31.856Z,29.02
2019-04-25T15:53:02.845Z,28.34
2019-04-25T15:55:34.800Z,27.85
2019-04-25T15:58:05.805Z,27.88
2019-04-25T16:00:38.908Z,28.02
2019-04-25T16:03:10.004Z,28.59
2019-04-25T16:05:43.466Z,28.29
2019-04-25T16:08:14.872Z,28.09
2019-04-25T16:10:45.956Z,27.79
2019-04-25T16:13:17.198Z,27.19
2019-04-25T16:15:48.178Z,26.67
2019-04-25T16:18:19.638Z,26.59
2019-04-25T16:20:50.619Z,26.58
2019-04-25T16:23:21.892Z,26.47
2019-04-25T16:25:52.898Z,26.33
2019-04-25T16:28:24.226Z,26.32
2019-04-25T16:30:55.336Z,26.39
2019-04-25T16:33:26.455Z,26.39
2019-04-25T16:35:57.524Z,26.61
2019-04-25T16:38:27.771Z,26.63
2019-04-25T16:40:58.961Z,26.47
2019-04-25T16:43:32.271Z,26.30
2019-04-25T16:46:03.536Z,26.32
2019-04-25T16:48:34.457Z,26.62
2019-04-25T16:51:05.842Z,26.91
2019-04-25T16:53:37.827Z,26.91
2019-04-25T16:56:09.217Z,26.98
2019-04-25T16:58:40.797Z,26.71
2019-04-25T17:01:13.401Z,26.71
2019-04-25T17:03:44.862Z,26.62
2019-04-25T17:06:16.067Z,26.62
2019-04-25T17:08:48.486Z,26.89
2019-04-25T17:11:18.622Z,26.85
2019-04-25T17:13:51.439Z,26.39
2019-04-25T17:16:30.684Z,26.15
2019-04-25T17:19:03.671Z,26.15
2019-04-25T17:21:34.801Z,26.08
2019-04-25T17:24:07.749Z,25.88
2019-04-25T17:26:39.514Z,25.71
2019-04-25T17:29:12.660Z,25.07
2019-04-25T17:31:47.878Z,25.07
2019-04-25T17:34:23.950Z,24.85
2019-04-25T17:37:11.324Z,24.68
2019-04-25T17:39:45.563Z,24.48
2019-04-25T17:42:16.560Z,24.50
2019-04-25T17:44:47.719Z,24.49
2019-04-25T17:47:18.670Z,24.41
2019-04-25T17:49:49.818Z,24.25
2019-04-25T17:52:20.889Z,24.08
2019-04-25T17:54:50.909Z,23.90
2019-04-25T17:57:22.098Z,23.71
2019-04-25T17:59:53.120Z,23.53
2019-04-25T18:02:24.307Z,23.45
2019-04-25T18:04:55.172Z,23.42
2019-04-25T18:07:26.538Z,23.35
2019-04-25T18:09:57.464Z,23.15
2019-04-25T18:12:28.490Z,23.01
2019-04-25T18:15:01.085Z,22.86
2019-04-25T18:17:32.320Z,22.74
2019-04-25T18:20:05.554Z,22.56
2019-04-25T18:22:44.165Z,22.40
2019-04-25T18:25:16.763Z,22.33
2019-04-25T18:27:55.027Z,22.19
2019-04-25T18:30:25.939Z,22.07
2019-04-25T18:33:10.068Z,21.88
2019-04-25T18:35:38.849Z,21.81
2019-04-25T18:38:21.946Z,21.66
2019-04-25T18:40:57.826Z,21.66
2019-04-25T18:43:33.233Z,21.59
2019-04-25T18:46:06.096Z,21.35
2019-04-25T18:48:37.046Z,21.28
2019-04-25T18:51:08.306Z,21.18
2019-04-25T18:53:52.844Z,21.03
2019-04-25T18:56:25.604Z,20.87
2019-04-25T18:59:16.213Z,20.72
2019-04-25T19:01:57.691Z,20.74
2019-04-25T19:04:32.801Z,21.05
2019-04-25T19:07:04.073Z,20.94
2019-04-25T19:09:34.960Z,20.74
2019-04-25T19:12:06.099Z,20.70
2019-04-25T19:14:37.020Z,20.65
2019-04-25T19:17:09.601Z,20.54
2019-04-25T19:19:41.106Z,20.46
2019-04-25T19:22:12.321Z,20.47
2019-04-25T19:24:45.057Z,20.43
2019-04-25T19:27:23.577Z,20.30
2019-04-25T19:29:47.921Z,20.27
2019-04-25T19:32:18.783Z,20.17
2019-04-25T19:34:50.818Z,20.10
2019-04-25T19:37:21.747Z,20.02
2019-04-25T19:40:09.665Z,19.94
2019-04-25T19:42:51.191Z,19.82
2019-04-25T19:45:22.379Z,19.70
2019-04-25T19:47:53.253Z,19.73
2019-04-25T19:50:24.279Z,19.76
2019-04-25T19:52:55.210Z,19.83
2019-04-25T19:55:26.322Z,19.85
2019-04-25T19:57:57.270Z,19.77
2019-04-25T20:00:28.399Z,19.57
2019-04-25T20:03:03.621Z,19.40
2019-04-25T20:05:35.267Z,19.33
2019-04-25T20:08:25.970Z,19.27
2019-04-25T20:11:03.869Z,19.16
2019-04-25T20:13:35.013Z,19.09
2019-04-25T20:16:05.950Z,19.00
2019-04-25T20:18:37.112Z,18.95
2019-04-25T20:21:08.013Z,19.03
2019-04-25T20:23:39.260Z,19.01
2019-04-25T20:26:10.141Z,18.97
2019-04-25T20:28:42.689Z,18.86
2019-04-25T20:31:13.624Z,18.77
2019-04-25T20:33:45.574Z,18.64
2019-04-25T20:36:17.975Z,18.46
2019-04-25T20:38:49.276Z,18.27
2019-04-25T20:41:20.320Z,18.16
2019-04-25T20:43:52.814Z,18.06
2019-04-25T20:46:23.837Z,18.07
2019-04-25T20:48:54.400Z,17.91
2019-04-25T20:51:25.704Z,17.87
2019-04-25T20:53:57.082Z,17.99
2019-04-25T20:56:28.448Z,17.91
2019-04-25T20:58:59.302Z,17.70
2019-04-25T21:01:30.601Z,17.47
2019-04-25T21:04:12.682Z,17.41
2019-04-25T21:06:41.035Z,17.42
2019-04-25T21:09:11.860Z,17.43
2019-04-25T21:11:42.930Z,17.54
2019-04-25T21:14:15.380Z,17.69
2019-04-25T21:16:48.061Z,17.70
2019-04-25T21:19:26.040Z,17.58
2019-04-25T21:21:58.714Z,17.50
2019-04-25T21:24:29.765Z,17.46
2019-04-25T21:27:00.056Z,17.44
2019-04-25T21:29:32.167Z,17.42
2019-04-25T21:32:03.132Z,17.29
2019-04-25T21:34:34.412Z,17.17
2019-04-25T21:37:05.662Z,16.99
2019-04-25T21:39:40.002Z,16.87
2019-04-25T21:42:28.350Z,16.76
2019-04-25T21:45:00.469Z,16.72
2019-04-25T21:47:31.436Z,16.66
2019-04-25T21:50:03.109Z,16.58
2019-04-25T21:52:34.450Z,16.45
2019-04-25T21:55:06.995Z,16.31
2019-04-25T21:57:38.020Z,16.22
2019-04-25T22:00:11.932Z,16.16
2019-04-25T22:02:42.970Z,16.61
2019-04-25T22:05:13.431Z,16.95
2019-04-25T22:07:45.005Z,16.84
2019-04-25T22:10:16.458Z,16.89
2019-04-25T22:12:47.473Z,17.02
2019-04-25T22:15:18.603Z,16.97
2019-04-25T22:17:49.823Z,16.88
2019-04-25T22:20:20.689Z,16.79
2019-04-25T22:22:54.341Z,16.72
2019-04-25T22:25:25.198Z,16.67
2019-04-25T22:27:57.693Z,16.55
2019-04-25T22:30:29.510Z,16.40
2019-04-25T22:33:11.161Z,16.26
2019-04-25T22:35:43.745Z,16.14
2019-04-25T22:38:14.997Z,16.08
2019-04-25T22:40:45.866Z,16.03
2019-04-25T22:43:16.614Z,15.93
2019-04-25T22:45:48.011Z,15.81
2019-04-25T22:48:20.504Z,15.76
2019-04-25T22:50:51.890Z,15.60
2019-04-25T22:53:26.026Z,15.49
2019-04-25T22:55:55.744Z,15.39
2019-04-25T22:58:26.620Z,15.34
2019-04-25T23:00:57.817Z,15.23
2019-04-25T23:03:33.004Z,15.14
2019-04-25T23:06:04.569Z,15.06
2019-04-25T23:08:36.498Z,15.00
2019-04-25T23:11:08.453Z,14.91
2019-04-25T23:13:39.357Z,14.83
2019-04-25T23:16:09.535Z,14.76
2019-04-25T23:18:40.673Z,14.73
2019-04-25T23:21:12.450Z,14.65
2019-04-25T23:23:43.519Z,14.55
2019-04-25T23:26:21.914Z,14.47
2019-04-25T23:28:55.046Z,14.41
2019-04-25T23:31:33.659Z,14.30
2019-04-25T23:34:06.089Z,14.18
2019-04-25T23:36:37.710Z,14.17
2019-04-25T23:39:09.409Z,14.16
2019-04-25T23:41:40.644Z,14.09
2019-04-25T23:44:12.102Z,14.02
2019-04-25T23:46:43.192Z,13.93
2019-04-25T23:49:14.827Z,13.86
2019-04-25T23:51:45.719Z,13.79
2019-04-25T23:54:17.201Z,13.70
2019-04-25T23:56:48.376Z,13.62
2019-04-25T23:59:19.210Z,13.56
